createdAt,value
2019-04-16T00:01:28.390Z,94766.66
2019-04-16T00:04:05.444Z,94767.92
2019-04-16T00:07:06.147Z,94761.94
2019-04-16T00:09:55.247Z,94760.64
2019-04-16T00:12:43.637Z,94758.69
2019-04-16T00:15:13.060Z,94761.11
2019-04-16T00:17:44.346Z,94759.81
2019-04-16T00:20:13.507Z,94757.22
2019-04-16T00:22:55.808Z,94759.45
2019-04-16T00:25:25.138Z,94748.95
2019-04-16T00:27:54.569Z,94749.08
2019-04-16T00:30:24.019Z,94753.12
2019-04-16T00:32:54.921Z,94751.13
2019-04-16T00:35:24.306Z,94749.81
2019-04-16T00:37:53.963Z,94751.28
2019-04-16T00:40:26.392Z,94747.34
2019-04-16T00:42:54.421Z,94752.86
2019-04-16T00:45:23.745Z,94752.86
2019-04-16T00:47:53.141Z,94758.03
2019-04-16T00:50:22.489Z,94752.52
2019-04-16T00:52:53.991Z,94758.81
2019-04-16T00:55:23.382Z,94752.75
2019-04-16T00:57:52.768Z,94765.83
2019-04-16T01:00:22.109Z,94755.89
2019-04-16T01:02:51.471Z,94756.50
2019-04-16T01:05:20.972Z,94761.17
2019-04-16T01:07:50.338Z,94755.43
2019-04-16T01:10:19.696Z,94755.70
2019-04-16T01:12:49.018Z,94754.38
2019-04-16T01:15:18.411Z,94754.05
2019-04-16T01:17:47.794Z,94760.60
2019-04-16T01:20:17.135Z,94761.08
2019-04-16T01:22:47.457Z,94757.84
2019-04-16T01:25:16.946Z,94758.95
2019-04-16T01:27:51.551Z,94758.92
2019-04-16T01:30:31.102Z,94767.44
2019-04-16T01:33:07.455Z,94771.66
2019-04-16T01:36:01.874Z,94762.05
2019-04-16T01:39:13.590Z,94767.33
2019-04-16T01:41:27.507Z,94765.67
2019-04-16T01:43:57.282Z,94761.55
2019-04-16T01:46:27.414Z,94763.89
2019-04-16T01:48:56.760Z,94767.74
2019-04-16T01:51:26.142Z,94765.31
2019-04-16T01:53:55.537Z,94766.73
2019-04-16T01:56:27.968Z,94766.91
2019-04-16T01:58:56.003Z,94765.55
2019-04-16T02:01:25.954Z,94767.16
2019-04-16T02:03:55.391Z,94764.38
2019-04-16T02:06:25.963Z,94761.61
2019-04-16T02:08:56.056Z,94763.05
2019-04-16T02:11:25.431Z,94773.97
2019-04-16T02:13:54.828Z,94772.83
2019-04-16T02:16:25.216Z,94775.54
2019-04-16T02:18:55.320Z,94776.11
2019-04-16T02:21:24.702Z,94774.41
2019-04-16T02:23:54.065Z,94777.82
2019-04-16T02:26:24.372Z,94774.41
2019-04-16T02:28:56.509Z,94780.10
2019-04-16T02:31:24.861Z,94779.95
2019-04-16T02:33:54.361Z,94780.91
2019-04-16T02:36:23.746Z,94780.10
2019-04-16T02:38:53.778Z,94779.58
2019-04-16T02:41:24.670Z,94778.84
2019-04-16T02:43:54.211Z,94773.30
2019-04-16T02:46:23.564Z,94775.17
2019-04-16T02:48:52.890Z,94775.73
2019-04-16T02:51:41.721Z,94776.76
2019-04-16T02:54:36.286Z,94772.92
2019-04-16T02:57:26.561Z,94769.34
2019-04-16T02:59:56.481Z,94768.52
2019-04-16T03:02:45.110Z,94767.38
2019-04-16T03:05:20.983Z,94766.08
2019-04-16T03:07:50.330Z,94765.13
2019-04-16T03:10:19.693Z,94772.64
2019-04-16T03:12:51.843Z,94761.87
2019-04-16T03:15:40.301Z,94764.23
2019-04-16T03:18:11.669Z,94757.91
2019-04-16T03:20:40.924Z,94761.69
2019-04-16T03:23:10.313Z,94763.50
2019-04-16T03:25:41.329Z,94761.08
2019-04-16T03:28:11.508Z,94766.47
2019-04-16T03:30:42.877Z,94767.23
2019-04-16T03:33:14.301Z,94761.98
2019-04-16T03:35:43.203Z,94763.95
2019-04-16T03:38:12.578Z,94769.58
2019-04-16T03:40:41.937Z,94771.44
2019-04-16T03:43:11.322Z,94770.60
2019-04-16T03:45:41.176Z,94770.07
2019-04-16T03:48:10.608Z,94769.16
2019-04-16T03:50:39.946Z,94768.25
2019-04-16T03:53:09.310Z,94772.73
2019-04-16T03:55:38.990Z,94777.55
2019-04-16T03:58:08.393Z,94778.01
2019-04-16T04:00:43.873Z,94779.48
2019-04-16T04:03:10.556Z,94783.32
2019-04-16T04:05:39.941Z,94788.34
2019-04-16T04:08:09.360Z,94791.48
2019-04-16T04:10:38.704Z,94792.86
2019-04-16T04:13:08.104Z,94791.34
2019-04-16T04:15:37.504Z,94796.22
2019-04-16T04:18:14.171Z,94792.83
2019-04-16T04:20:43.579Z,94793.97
2019-04-16T04:23:12.985Z,94805.26
2019-04-16T04:25:42.389Z,94807.57
2019-04-16T04:28:11.757Z,94812.02
2019-04-16T04:30:41.117Z,94817.22
2019-04-16T04:33:12.170Z,94821.97
2019-04-16T04:35:41.489Z,94822.53
2019-04-16T04:38:10.862Z,94818.42
2019-04-16T04:40:44.739Z,94824.77
2019-04-16T04:43:11.327Z,94828.53
2019-04-16T04:45:41.518Z,94828.59
2019-04-16T04:48:11.972Z,94838.91
2019-04-16T04:50:41.630Z,94834.55
2019-04-16T04:53:11.070Z,94827.06
2019-04-16T04:55:40.409Z,94825.83
2019-04-16T04:58:09.769Z,94832.20
2019-04-16T05:00:41.203Z,94831.55
2019-04-16T05:03:15.529Z,94834.88
2019-04-16T05:05:48.524Z,94839.62
2019-04-16T05:08:17.911Z,94843.64
2019-04-16T05:10:58.322Z,94843.13
2019-04-16T05:13:18.463Z,94837.65
2019-04-16T05:15:48.118Z,94845.62
2019-04-16T05:18:17.502Z,94845.58
2019-04-16T05:20:47.628Z,94848.79
2019-04-16T05:23:17.228Z,94845.06
2019-04-16T05:25:46.615Z,94851.59
2019-04-16T05:28:16.206Z,94852.02
2019-04-16T05:30:45.571Z,94849.72
2019-04-16T05:33:14.913Z,94851.26
2019-04-16T05:35:44.513Z,94856.64
2019-04-16T05:38:13.905Z,94850.02
2019-04-16T05:40:43.248Z,94846.91
2019-04-16T05:43:12.583Z,94850.96
2019-04-16T05:45:41.948Z,94855.42
2019-04-16T05:48:11.466Z,94853.22
2019-04-16T05:50:40.815Z,94857.01
2019-04-16T05:53:12.797Z,94860.38
2019-04-16T05:56:15.157Z,94860.19
2019-04-16T05:58:44.614Z,94858.55
2019-04-16T06:01:26.218Z,94853.20
2019-04-16T06:03:55.603Z,94858.25
2019-04-16T06:06:24.959Z,94860.55
2019-04-16T06:08:56.110Z,94851.35
2019-04-16T06:11:29.106Z,94853.84
2019-04-16T06:14:08.727Z,94853.55
2019-04-16T06:16:49.229Z,94854.37
2019-04-16T06:19:34.307Z,94854.06
2019-04-16T06:22:34.585Z,94856.01
2019-04-16T06:25:21.141Z,94858.98
2019-04-16T06:28:09.434Z,94858.70
2019-04-16T06:31:04.976Z,94857.91
2019-04-16T06:33:46.200Z,94864.27
2019-04-16T06:36:49.600Z,94867.87
2019-04-16T06:39:40.997Z,94862.05
2019-04-16T06:42:23.517Z,94864.66
2019-04-16T06:45:01.591Z,94857.19
2019-04-16T06:47:52.071Z,94858.32
2019-04-16T06:50:49.746Z,94859.46
2019-04-16T06:53:39.485Z,94855.58
2019-04-16T06:56:27.787Z,94865.15
2019-04-16T06:59:34.773Z,94858.84
2019-04-16T07:02:27.624Z,94863.20
2019-04-16T07:05:21.702Z,94868.20
2019-04-16T07:08:36.915Z,94865.11
2019-04-16T07:11:01.586Z,94874.36
2019-04-16T07:13:30.970Z,94867.70
2019-04-16T07:16:00.441Z,94862.64
2019-04-16T07:18:29.779Z,94864.31
2019-04-16T07:20:59.144Z,94868.33
2019-04-16T07:23:28.560Z,94868.67
2019-04-16T07:25:57.941Z,94859.03
2019-04-16T07:28:36.148Z,94858.95
2019-04-16T07:31:32.769Z,94857.48
2019-04-16T07:34:11.028Z,94854.91
2019-04-16T07:37:17.602Z,94854.60
2019-04-16T07:40:14.382Z,94852.83
2019-04-16T07:43:06.047Z,94847.48
2019-04-16T07:45:54.525Z,94848.45
2019-04-16T07:48:33.104Z,94845.36
2019-04-16T07:51:20.135Z,94844.88
2019-04-16T07:54:07.301Z,94838.70
2019-04-16T07:56:38.214Z,94838.83
2019-04-16T07:59:07.613Z,94835.92
2019-04-16T08:01:37.066Z,94837.81
2019-04-16T08:04:06.471Z,94844.90
2019-04-16T08:06:35.794Z,94851.83
2019-04-16T08:09:07.547Z,94846.48
2019-04-16T08:11:36.929Z,94840.44
2019-04-16T08:14:09.819Z,94838.73
2019-04-16T08:16:47.193Z,94843.81
2019-04-16T08:19:08.594Z,94852.68
2019-04-16T08:21:40.650Z,94844.63
2019-04-16T08:24:12.480Z,94836.05
2019-04-16T08:26:45.064Z,94841.73
2019-04-16T08:29:12.969Z,94832.58
2019-04-16T08:31:45.567Z,94830.31
2019-04-16T08:34:14.952Z,94826.05
2019-04-16T08:36:44.356Z,94823.40
2019-04-16T08:39:14.975Z,94825.55
2019-04-16T08:41:44.353Z,94818.76
2019-04-16T08:44:13.738Z,94819.81
2019-04-16T08:46:43.173Z,94819.45
2019-04-16T08:49:14.801Z,94817.39
2019-04-16T08:51:43.827Z,94817.76
2019-04-16T08:54:17.667Z,94816.30
2019-04-16T08:56:44.290Z,94812.16
2019-04-16T08:59:13.691Z,94809.39
2019-04-16T09:01:43.077Z,94808.23
2019-04-16T09:04:12.421Z,94802.63
2019-04-16T09:06:42.591Z,94799.41
2019-04-16T09:09:50.290Z,94798.05
2019-04-16T09:12:19.683Z,94804.61
2019-04-16T09:14:55.968Z,94798.50
2019-04-16T09:17:30.500Z,94798.57
2019-04-16T09:20:06.338Z,94803.20
2019-04-16T09:22:48.041Z,94799.75
2019-04-16T09:25:16.472Z,94794.27
2019-04-16T09:27:49.635Z,94791.75
2019-04-16T09:30:36.540Z,94779.60
2019-04-16T09:33:24.832Z,94780.16
2019-04-16T09:36:19.454Z,94777.20
2019-04-16T09:39:07.802Z,94786.81
2019-04-16T09:41:40.446Z,94773.03
2019-04-16T09:44:09.885Z,94774.91
2019-04-16T09:46:59.420Z,94757.85
2019-04-16T09:49:10.324Z,94762.00
2019-04-16T09:51:39.671Z,94749.51
2019-04-16T09:54:12.310Z,94749.51
2019-04-16T09:56:40.119Z,94756.56
2019-04-16T09:59:27.173Z,94762.08
2019-04-16T10:02:01.845Z,94759.16
2019-04-16T10:04:31.205Z,94752.86
2019-04-16T10:07:00.604Z,94752.05
2019-04-16T10:09:29.951Z,94751.51
2019-04-16T10:11:59.328Z,94759.78
2019-04-16T10:14:29.105Z,94740.19
2019-04-16T10:16:58.425Z,94744.66
2019-04-16T10:19:27.800Z,94742.67
2019-04-16T10:21:57.185Z,94727.95
2019-04-16T10:24:54.664Z,94727.18
2019-04-16T10:27:32.488Z,94717.20
2019-04-16T10:30:02.065Z,94726.59
2019-04-16T10:32:31.435Z,94714.73
2019-04-16T10:35:00.757Z,94727.28
2019-04-16T10:37:30.246Z,94723.29
2019-04-16T10:40:13.574Z,94719.41
2019-04-16T10:43:00.813Z,94717.09
2019-04-16T10:45:47.982Z,94713.38
2019-04-16T10:48:43.186Z,94709.42
2019-04-16T10:51:31.769Z,94707.11
2019-04-16T10:54:20.053Z,94703.68
2019-04-16T10:57:10.241Z,94703.05
2019-04-16T11:00:05.890Z,94694.63
2019-04-16T11:02:47.944Z,94695.20
2019-04-16T11:05:30.876Z,94685.70
2019-04-16T11:08:01.018Z,94694.47
2019-04-16T11:10:30.424Z,94692.36
2019-04-16T11:13:00.552Z,94690.30
2019-04-16T11:15:30.136Z,94697.84
2019-04-16T11:17:59.630Z,94688.41
2019-04-16T11:20:29.055Z,94691.17
2019-04-16T11:22:58.479Z,94685.17
2019-04-16T11:25:27.893Z,94695.15
2019-04-16T11:27:57.570Z,94687.44
2019-04-16T11:30:35.554Z,94684.04
2019-04-16T11:33:05.214Z,94684.04
2019-04-16T11:35:34.740Z,94695.52
2019-04-16T11:38:04.321Z,94704.37
2019-04-16T11:40:33.710Z,94706.89
2019-04-16T11:43:03.308Z,94705.00
2019-04-16T11:45:33.670Z,94713.63
2019-04-16T11:48:03.190Z,94718.57
2019-04-16T11:50:35.860Z,94725.07
2019-04-16T11:53:03.982Z,94722.33
2019-04-16T11:55:33.367Z,94710.77
2019-04-16T11:58:02.917Z,94704.30
2019-04-16T12:00:40.241Z,94702.08
2019-04-16T12:03:16.962Z,94693.19
2019-04-16T12:06:27.035Z,94696.02
2019-04-16T12:09:04.438Z,94693.41
2019-04-16T12:11:48.517Z,94699.88
2019-04-16T12:14:42.417Z,94697.79
2019-04-16T12:17:18.455Z,94695.60
2019-04-16T12:20:06.777Z,94704.11
2019-04-16T12:22:55.633Z,94699.55
2019-04-16T12:25:46.959Z,94691.49
2019-04-16T12:28:44.342Z,94696.56
2019-04-16T12:31:32.605Z,94692.55
2019-04-16T12:34:19.727Z,94690.90
2019-04-16T12:36:59.454Z,94685.23
2019-04-16T12:39:36.982Z,94688.65
2019-04-16T12:42:31.477Z,94685.33
2019-04-16T12:45:19.763Z,94689.14
2019-04-16T12:48:06.698Z,94676.79
2019-04-16T12:50:42.359Z,94677.56
2019-04-16T12:53:24.352Z,94672.43
2019-04-16T12:56:11.426Z,94671.59
2019-04-16T12:58:51.794Z,94665.72
2019-04-16T13:01:36.513Z,94666.63
2019-04-16T13:04:12.882Z,94664.74
2019-04-16T13:07:04.624Z,94664.30
2019-04-16T13:09:53.074Z,94657.48
2019-04-16T13:12:27.872Z,94657.56
2019-04-16T13:15:14.924Z,94657.89
2019-04-16T13:18:21.605Z,94655.81
2019-04-16T13:21:06.260Z,94657.52
2019-04-16T13:23:55.573Z,94648.31
2019-04-16T13:26:45.256Z,94648.98
2019-04-16T13:29:17.452Z,94648.85
2019-04-16T13:31:46.944Z,94658.93
2019-04-16T13:34:18.667Z,94660.09
2019-04-16T13:36:51.328Z,94660.09
2019-04-16T13:39:26.634Z,94663.66
2019-04-16T13:41:56.050Z,94669.94
2019-04-16T13:44:27.840Z,94671.63
2019-04-16T13:47:01.403Z,94666.09
2019-04-16T13:49:33.402Z,94658.81
2019-04-16T13:52:02.947Z,94658.81
2019-04-16T13:54:54.749Z,94651.55
2019-04-16T13:57:24.559Z,94651.55
2019-04-16T14:00:13.106Z,94654.19
2019-04-16T14:02:57.059Z,94652.76
2019-04-16T14:05:26.546Z,94642.77
2019-04-16T14:07:55.914Z,94647.86
2019-04-16T14:10:25.619Z,94646.55
2019-04-16T14:12:58.085Z,94645.69
2019-04-16T14:15:35.679Z,94645.66
2019-04-16T14:18:02.824Z,94642.90
2019-04-16T14:20:32.210Z,94634.95
2019-04-16T14:23:01.630Z,94633.41
2019-04-16T14:25:31.226Z,94630.25
2019-04-16T14:28:03.177Z,94631.12
2019-04-16T14:30:39.567Z,94636.56
2019-04-16T14:33:09.012Z,94624.84
2019-04-16T14:35:40.351Z,94624.84
2019-04-16T14:38:10.024Z,94639.11
2019-04-16T14:40:39.634Z,94626.00
2019-04-16T14:43:11.191Z,94650.78
2019-04-16T14:45:58.338Z,94656.28
2019-04-16T14:48:19.664Z,94646.42
2019-04-16T14:50:49.037Z,94645.51
2019-04-16T14:53:31.065Z,94636.61
2019-04-16T14:56:04.794Z,94633.50
2019-04-16T14:59:02.277Z,94632.08
2019-04-16T15:02:06.013Z,94625.77
2019-04-16T15:04:57.069Z,94627.58
2019-04-16T15:07:36.678Z,94625.04
2019-04-16T15:10:29.462Z,94627.31
2019-04-16T15:13:16.850Z,94626.16
2019-04-16T15:16:13.193Z,94627.00
2019-04-16T15:19:04.743Z,94626.42
2019-04-16T15:22:03.686Z,94624.29
2019-04-16T15:25:04.286Z,94620.58
2019-04-16T15:27:49.473Z,94619.78
2019-04-16T15:30:35.305Z,94610.09
2019-04-16T15:33:32.519Z,94616.30
2019-04-16T15:36:20.854Z,94615.06
2019-04-16T15:39:21.588Z,94611.04
2019-04-16T15:42:21.812Z,94614.80
2019-04-16T15:45:13.204Z,94607.25
2019-04-16T15:48:00.276Z,94613.84
2019-04-16T15:50:38.929Z,94625.98
2019-04-16T15:53:17.974Z,94605.02
2019-04-16T15:55:55.348Z,94621.46
2019-04-16T15:58:40.765Z,94616.55
2019-04-16T16:01:27.914Z,94617.21
2019-04-16T16:04:28.626Z,94633.09
2019-04-16T16:07:01.327Z,94605.78
2019-04-16T16:10:04.751Z,94601.21
2019-04-16T16:12:34.454Z,94606.83
2019-04-16T16:15:07.647Z,94599.85
2019-04-16T16:17:35.174Z,94600.17
2019-04-16T16:20:09.582Z,94604.37
2019-04-16T16:22:36.070Z,94608.59
2019-04-16T16:25:06.563Z,94613.09
2019-04-16T16:27:41.675Z,94614.24
2019-04-16T16:30:07.712Z,94618.98
2019-04-16T16:32:37.121Z,94619.82
2019-04-16T16:35:07.137Z,94624.05
2019-04-16T16:37:37.500Z,94624.20
2019-04-16T16:40:07.123Z,94621.83
2019-04-16T16:42:36.522Z,94621.82
2019-04-16T16:45:07.512Z,94624.24
2019-04-16T16:47:40.145Z,94627.42
2019-04-16T16:50:12.382Z,94627.39
2019-04-16T16:53:00.695Z,94623.70
2019-04-16T16:55:42.207Z,94621.86
2019-04-16T16:58:30.211Z,94625.78
2019-04-16T17:01:16.969Z,94625.78
2019-04-16T17:04:08.586Z,94626.83
2019-04-16T17:06:38.007Z,94621.63
2019-04-16T17:09:09.185Z,94631.33
2019-04-16T17:11:40.151Z,94624.83
2019-04-16T17:14:09.928Z,94629.11
2019-04-16T17:16:39.302Z,94629.09
2019-04-16T17:19:08.881Z,94633.64
2019-04-16T17:21:38.290Z,94625.80
2019-04-16T17:24:07.688Z,94635.53
2019-04-16T17:26:37.077Z,94633.81
2019-04-16T17:29:06.689Z,94626.98
2019-04-16T17:31:36.295Z,94632.48
2019-04-16T17:34:05.653Z,94625.64
2019-04-16T17:36:35.190Z,94636.78
2019-04-16T17:39:10.526Z,94633.09
2019-04-16T17:41:43.840Z,94635.57
2019-04-16T17:44:20.230Z,94644.67
2019-04-16T17:46:59.542Z,94638.74
2019-04-16T17:49:36.667Z,94638.80
2019-04-16T17:52:12.636Z,94638.02
2019-04-16T17:55:07.046Z,94643.59
2019-04-16T17:57:55.693Z,94645.67
2019-04-16T18:00:47.105Z,94654.44
2019-04-16T18:03:47.678Z,94659.19
2019-04-16T18:06:24.650Z,94662.45
2019-04-16T18:09:03.059Z,94666.50
2019-04-16T18:11:47.402Z,94673.39
2019-04-16T18:14:48.301Z,94674.27
2019-04-16T18:17:46.921Z,94679.20
2019-04-16T18:20:56.768Z,94680.96
2019-04-16T18:23:30.416Z,94684.73
2019-04-16T18:26:27.669Z,94682.88
2019-04-16T18:29:03.513Z,94689.09
2019-04-16T18:31:46.305Z,94689.35
2019-04-16T18:34:26.647Z,94687.62
2019-04-16T18:37:16.087Z,94690.80
2019-04-16T18:39:52.600Z,94695.56
2019-04-16T18:42:32.785Z,94689.59
2019-04-16T18:45:19.698Z,94694.49
2019-04-16T18:48:04.703Z,94691.56
2019-04-16T18:50:31.660Z,94699.42
2019-04-16T18:53:01.063Z,94694.07
2019-04-16T18:55:30.539Z,94694.77
2019-04-16T18:58:00.758Z,94699.32
2019-04-16T19:00:42.980Z,94703.56
2019-04-16T19:03:15.127Z,94701.44
2019-04-16T19:05:43.550Z,94705.66
2019-04-16T19:08:12.966Z,94708.27
2019-04-16T19:10:42.499Z,94707.48
2019-04-16T19:13:11.949Z,94706.49
2019-04-16T19:15:41.303Z,94701.47
2019-04-16T19:18:19.814Z,94702.77
2019-04-16T19:20:42.096Z,94703.77
2019-04-16T19:23:11.445Z,94711.75
2019-04-16T19:25:40.824Z,94708.50
2019-04-16T19:28:10.606Z,94711.59
2019-04-16T19:30:40.104Z,94709.00
2019-04-16T19:33:09.551Z,94704.95
2019-04-16T19:35:38.924Z,94708.87
2019-04-16T19:38:08.857Z,94702.04
2019-04-16T19:40:40.374Z,94708.20
2019-04-16T19:43:09.780Z,94706.28
2019-04-16T19:45:40.618Z,94703.98
2019-04-16T19:48:10.308Z,94706.27
2019-04-16T19:50:39.686Z,94710.32
2019-04-16T19:53:13.780Z,94713.59
2019-04-16T19:55:40.236Z,94712.30
2019-04-16T19:58:09.582Z,94712.97
2019-04-16T20:00:39.017Z,94719.28
2019-04-16T20:03:08.383Z,94716.69
2019-04-16T20:05:37.880Z,94713.59
2019-04-16T20:08:07.306Z,94708.75
2019-04-16T20:10:36.714Z,94717.03
2019-04-16T20:13:06.049Z,94713.94
2019-04-16T20:15:35.448Z,94712.50
2019-04-16T20:18:07.080Z,94709.23
2019-04-16T20:20:35.975Z,94708.59
2019-04-16T20:23:05.863Z,94704.05
2019-04-16T20:25:35.688Z,94712.83
2019-04-16T20:28:09.236Z,94715.91
2019-04-16T20:30:36.539Z,94718.17
2019-04-16T20:33:06.068Z,94715.08
2019-04-16T20:35:35.531Z,94713.95
2019-04-16T20:38:04.905Z,94717.52
2019-04-16T20:40:34.272Z,94708.44
2019-04-16T20:43:03.807Z,94717.02
2019-04-16T20:45:33.110Z,94713.29
2019-04-16T20:48:02.492Z,94712.80
2019-04-16T20:50:31.925Z,94713.94
2019-04-16T20:53:06.189Z,94710.38
2019-04-16T20:55:33.883Z,94714.10
2019-04-16T20:58:03.386Z,94713.28
2019-04-16T21:00:34.044Z,94707.45
2019-04-16T21:03:03.856Z,94702.73
2019-04-16T21:05:35.757Z,94705.14
2019-04-16T21:08:04.630Z,94705.00
2019-04-16T21:10:35.694Z,94707.59
2019-04-16T21:13:05.247Z,94708.23
2019-04-16T21:15:34.642Z,94706.27
2019-04-16T21:18:04.016Z,94711.16
2019-04-16T21:20:33.453Z,94713.21
2019-04-16T21:23:03.489Z,94710.28
2019-04-16T21:25:33.336Z,94709.66
2019-04-16T21:28:24.747Z,94709.15
2019-04-16T21:30:58.589Z,94707.56
2019-04-16T21:33:36.030Z,94706.09
2019-04-16T21:36:06.033Z,94708.66
2019-04-16T21:38:48.974Z,94708.81
2019-04-16T21:41:18.315Z,94697.82
2019-04-16T21:43:47.819Z,94704.27
2019-04-16T21:46:20.149Z,94708.59
2019-04-16T21:48:48.247Z,94708.23
2019-04-16T21:51:19.477Z,94707.42
2019-04-16T21:53:48.701Z,94704.80
2019-04-16T21:56:18.055Z,94713.52
2019-04-16T21:58:50.156Z,94710.58
2019-04-16T22:01:35.782Z,94655.08
2019-04-16T22:04:13.500Z,94712.47
2019-04-16T22:06:40.577Z,94705.97
2019-04-16T22:09:10.021Z,94704.81
2019-04-16T22:11:43.289Z,94710.30
2019-04-16T22:14:10.580Z,94707.70
2019-04-16T22:16:39.929Z,94713.66
2019-04-16T22:19:11.109Z,94714.13
2019-04-16T22:21:42.834Z,94716.72
2019-04-16T22:24:11.446Z,94717.70
2019-04-16T22:26:40.802Z,94716.25
2019-04-16T22:29:15.351Z,94719.11
2019-04-16T22:31:41.244Z,94716.06
2019-04-16T22:34:10.594Z,94729.78
2019-04-16T22:36:39.945Z,94719.25
2019-04-16T22:39:22.913Z,94718.73
2019-04-16T22:42:07.754Z,94717.35
2019-04-16T22:45:05.068Z,94719.60
2019-04-16T22:47:34.654Z,94727.26
2019-04-16T22:50:14.762Z,94720.83
2019-04-16T22:52:35.525Z,94717.89
2019-04-16T22:55:05.055Z,94715.55
2019-04-16T22:57:34.461Z,94714.50
2019-04-16T23:00:08.666Z,94717.20
2019-04-16T23:02:36.806Z,94710.09
2019-04-16T23:05:06.320Z,94717.31
2019-04-16T23:07:36.620Z,94712.27
2019-04-16T23:10:06.526Z,94713.07
2019-04-16T23:12:35.886Z,94713.69
2019-04-16T23:15:06.771Z,94713.97
2019-04-16T23:17:36.137Z,94713.17
2019-04-16T23:20:05.750Z,94715.60
2019-04-16T23:22:35.088Z,94709.14
2019-04-16T23:25:04.869Z,94713.67
2019-04-16T23:27:37.178Z,94713.30
2019-04-16T23:30:05.619Z,94714.27
2019-04-16T23:32:35.014Z,94710.05
2019-04-16T23:35:09.186Z,94711.34
2019-04-16T23:37:35.745Z,94712.61
2019-04-16T23:40:07.475Z,94710.17
2019-04-16T23:42:38.425Z,94714.31
2019-04-16T23:45:33.436Z,94713.17
2019-04-16T23:48:15.535Z,94711.55
2019-04-16T23:50:54.701Z,94712.50
2019-04-16T23:54:01.153Z,94715.08
2019-04-16T23:56:55.615Z,94712.47
2019-04-16T23:59:35.957Z,94715.86
